Weather History for Silver Bay, MN

Change the Weather History Date:

Wednesday, October 5, 2011

  Actual Average Record
Temperature  
Mean Temperature 50 °F -  
Max Temperature 60 °F 54 °F 73 °F (1997)
Min Temperature 39 °F 33 °F 21 °F (2003)
Degree Days  
Heating Degree Days 16    
Moisture  
Dew Point 48 °F    
Average Humidity 79    
Maximum Humidity 100    
Minimum Humidity 68    
Precipitation  
Precipitation 0.00 in - - ()
Sea Level Pressure  
Sea Level Pressure 30.12 in    
Wind  
Wind Speed 6 mph (ENE)    
Max Wind Speed 15 mph    
Max Gust Speed 22 mph    
Visibility 10 miles    
Events      
Averages and records for this station are not official NWS values.
T = Trace of Precipitation, MM = Missing Value Source: NWS Daily Summary

Daily Weather History Graph

Daily Weather History Graph

Search for Another Location

Airport:

Trip Planner

Search our weather history database for the weather conditions in past years. The results will help you decide how hot, cold, wet, or windy it might be!

Date:

Astronomy

Oct. 05, 2011 Rise Set
Actual Time 7:09 AM CDT 6:37 PM CDT
Civil Twilight 6:39 AM CDT 7:08 PM CDT
Nautical Twilight 6:03 AM CDT 7:43 PM CDT
Astronomical Twilight 5:27 AM CDT 8:19 PM CDT
Moon 3:39 PM CDT (10/5) 12:32 AM CDT (10/5)
Length of Visible Light 12h 29m
Length of Day
11h 28m
Waxing Gibbous, 66% of the Moon is Illuminated
Oct 5
Waxing Gibbous
Oct 11
Full
Oct 19
Last Quarter
Oct 26
New
Nov 2
First Quarter

Hourly Weather History & Observations

Time (CDT) Temp. Dew Point Humidity Pressure Visibility Wind Dir Wind Speed Gust Speed Precip Events Conditions
12:34 AM 41.0 °F 39.2 °F 93% 30.12 in 10.0 mi Calm Calm - N/A   Clear
12:54 AM 42.8 °F 39.2 °F 87% 30.12 in 10.0 mi Calm Calm - N/A   Clear
1:14 AM 41.0 °F 39.2 °F 93% 30.12 in 10.0 mi Calm Calm - N/A   Clear
1:34 AM 39.2 °F 39.2 °F 100% 30.12 in 10.0 mi Calm Calm - N/A   Clear
1:54 AM 39.2 °F 39.2 °F 100% 30.12 in 10.0 mi Calm Calm - N/A   Clear
2:14 AM 39.2 °F 39.2 °F 100% 30.12 in 10.0 mi Calm Calm - N/A   Clear
3:14 AM 48.2 °F 42.8 °F 82% 30.12 in 10.0 mi NE 5.8 mph - N/A   Clear
3:34 AM 48.2 °F 42.8 °F 82% 30.12 in 10.0 mi Calm Calm - N/A   Clear
3:54 AM 48.2 °F 44.6 °F 87% 30.13 in 10.0 mi NE 3.5 mph - N/A   Clear
4:14 AM 50.0 °F 44.6 °F 82% 30.13 in 10.0 mi NE 5.8 mph - N/A   Clear
4:34 AM 51.8 °F 46.4 °F 82% 30.13 in 10.0 mi NE 4.6 mph - N/A   Clear
4:54 AM 51.8 °F 46.4 °F 82% 30.14 in 10.0 mi ENE 8.1 mph - N/A   Clear
5:14 AM 53.6 °F 46.4 °F 77% 30.14 in 10.0 mi NE 9.2 mph 16.1 mph N/A   Clear
5:34 AM 53.6 °F 46.4 °F 77% 30.14 in 10.0 mi ENE 8.1 mph - N/A   Clear
5:54 AM 51.8 °F 46.4 °F 82% 30.14 in 10.0 mi ENE 9.2 mph - N/A   Clear
6:14 AM 51.8 °F 48.2 °F 88% 30.14 in 10.0 mi NE 9.2 mph 16.1 mph N/A   Clear
6:34 AM 51.8 °F 46.4 °F 82% 30.14 in 10.0 mi ENE 8.1 mph - N/A   Clear
6:54 AM 51.8 °F 48.2 °F 88% 30.13 in 10.0 mi ENE 8.1 mph - N/A   Clear
7:14 AM 51.8 °F 48.2 °F 88% 30.14 in 10.0 mi NE 9.2 mph - N/A   Clear
7:34 AM 51.8 °F 48.2 °F 88% 30.14 in 10.0 mi ENE 10.4 mph 16.1 mph N/A   Clear
7:54 AM 51.8 °F 48.2 °F 88% 30.14 in 10.0 mi ENE 11.5 mph 19.6 mph N/A   Scattered Clouds
8:14 AM 53.6 °F 48.2 °F 82% 30.15 in 10.0 mi ENE 9.2 mph 18.4 mph N/A   Scattered Clouds
8:34 AM 53.6 °F 48.2 °F 82% 30.15 in 10.0 mi NE 6.9 mph 17.3 mph N/A   Scattered Clouds
9:14 AM 55.4 °F 48.2 °F 77% 30.15 in 10.0 mi ENE 12.7 mph 18.4 mph N/A   Scattered Clouds
9:34 AM 55.4 °F 48.2 °F 77% 30.15 in 10.0 mi ENE 8.1 mph 19.6 mph N/A   Scattered Clouds
10:14 AM 57.2 °F 50.0 °F 77% 30.15 in 10.0 mi East 13.8 mph 17.3 mph N/A   Clear
10:34 AM 57.2 °F 50.0 °F 77% 30.14 in 10.0 mi ENE 12.7 mph 18.4 mph N/A   Clear
10:54 AM 60.8 °F 50.0 °F 68% 30.15 in 10.0 mi East 15.0 mph 19.6 mph N/A   Clear
11:14 AM 59.0 °F 50.0 °F 72% 30.15 in 10.0 mi East 15.0 mph 21.9 mph N/A   Clear
11:34 AM 57.2 °F 50.0 °F 77% 30.15 in 10.0 mi East 13.8 mph 19.6 mph N/A   Clear
12:14 PM 57.2 °F 50.0 °F 77% 30.14 in 10.0 mi ENE 10.4 mph 20.7 mph N/A   Clear
12:34 PM 59.0 °F 50.0 °F 72% 30.14 in 10.0 mi ENE 13.8 mph 19.6 mph N/A   Clear
12:54 PM 60.8 °F 50.0 °F 68% 30.14 in 10.0 mi ENE 11.5 mph 19.6 mph N/A   Clear
1:14 PM 60.8 °F 50.0 °F 68% 30.14 in 10.0 mi ENE 15.0 mph 19.6 mph N/A   Clear
1:34 PM 60.8 °F 50.0 °F 68% 30.13 in 10.0 mi ENE 11.5 mph 18.4 mph N/A   Clear
1:54 PM 59.0 °F 50.0 °F 72% 30.13 in 10.0 mi East 12.7 mph 17.3 mph N/A   Clear
2:14 PM 59.0 °F 50.0 °F 72% 30.13 in 10.0 mi East 13.8 mph 19.6 mph N/A   Clear
2:34 PM 59.0 °F 50.0 °F 72% 30.13 in 10.0 mi ENE 11.5 mph 20.7 mph N/A   Clear
2:54 PM 60.8 °F 50.0 °F 68% 30.12 in 10.0 mi NE 11.5 mph 18.4 mph N/A   Clear
3:14 PM 60.8 °F 50.0 °F 68% 30.12 in 10.0 mi East 12.7 mph 20.7 mph N/A   Clear
3:34 PM 60.8 °F 51.8 °F 72% 30.12 in 10.0 mi ENE 5.8 mph 16.1 mph N/A   Clear
3:54 PM 60.8 °F 51.8 °F 72% 30.11 in 10.0 mi ENE 8.1 mph 17.3 mph N/A   Clear
4:14 PM 60.8 °F 50.0 °F 68% 30.11 in 10.0 mi ENE 11.5 mph 16.1 mph N/A   Clear
4:34 PM 60.8 °F 50.0 °F 68% 30.11 in 10.0 mi ENE 10.4 mph - N/A   Clear
4:54 PM 60.8 °F 50.0 °F 68% 30.10 in 10.0 mi NE 8.1 mph - N/A   Clear
5:34 PM 59.0 °F 50.0 °F 72% 30.10 in 10.0 mi ENE 10.4 mph 16.1 mph N/A   Clear
5:54 PM 57.2 °F 50.0 °F 77% 30.09 in 10.0 mi ENE 8.1 mph - N/A   Clear
6:14 PM 57.2 °F 50.0 °F 77% 30.09 in 10.0 mi ENE 6.9 mph - N/A   Clear
6:34 PM 55.4 °F 48.2 °F 77% 30.09 in 10.0 mi NE 5.8 mph - N/A   Clear
6:54 PM 55.4 °F 48.2 °F 77% 30.09 in 10.0 mi NE 3.5 mph - N/A   Clear
7:14 PM 55.4 °F 48.2 °F 77% 30.09 in 10.0 mi NE 3.5 mph - N/A   Clear
7:34 PM 55.4 °F 48.2 °F 77% 30.09 in 10.0 mi ENE 4.6 mph - N/A   Clear
7:54 PM 55.4 °F 48.2 °F 77% 30.09 in 10.0 mi NE 5.8 mph - N/A   Clear
8:14 PM 55.4 °F 50.0 °F 82% 30.09 in 10.0 mi NE 5.8 mph - N/A   Clear
8:34 PM 55.4 °F 50.0 °F 82% 30.09 in 10.0 mi NE 4.6 mph - N/A   Clear
8:54 PM 55.4 °F 50.0 °F 82% 30.10 in 10.0 mi NE 5.8 mph - N/A   Clear
9:14 PM 55.4 °F 50.0 °F 82% 30.10 in 10.0 mi Calm Calm - N/A   Clear
9:34 PM 53.6 °F 48.2 °F 82% 30.10 in 10.0 mi NE 4.6 mph - N/A   Clear
9:54 PM 53.6 °F 48.2 °F 82% 30.10 in 10.0 mi Calm Calm - N/A   Clear
10:14 PM 53.6 °F 50.0 °F 88% 30.10 in 10.0 mi NNE 3.5 mph - N/A   Clear
10:34 PM 53.6 °F 48.2 °F 82% 30.10 in 10.0 mi NNE 3.5 mph - N/A   Clear
10:54 PM 51.8 °F 48.2 °F 88% 30.10 in 10.0 mi NNE 3.5 mph - N/A   Clear
11:34 PM 51.8 °F 48.2 °F 88% 30.10 in 10.0 mi Calm Calm - N/A   Clear
11:54 PM 51.8 °F 48.2 °F 88% 30.10 in 10.0 mi NNE 4.6 mph - N/A   Clear